Time;durP1;ratioP1;P1;durP2;ratioP2;P2;SDS_P1;SDS_P2;PMS_P1;PMS_P2;Temp;Humidity;BMP_temperature;BMP_pressure;BME280_temperature;BME280_humidity;BME280_pressure;Samples;Min_cycle;Max_cycle;Signal;HPM_P1;HPM_P2
2021/04/10 00:00:15;;;;;;;68.32;28.45;;;;;;;3.41;48.62;95805.91;5037907;28;20505;-78
2021/04/10 00:02:41;;;;;;;80.15;30.70;;;;;;;3.39;49.05;95804.47;5004340;28;20489;-79
2021/04/10 00:05:08;;;;;;;73.22;26.58;;;;;;;3.40;49.18;95804.28;5003169;28;20033;-78
2021/04/10 00:07:33;;;;;;;64.65;26.67;;;;;;;3.39;48.80;95802.69;5002208;28;20206;-78
2021/04/10 00:09:59;;;;;;;69.07;26.60;;;;;;;3.34;48.69;95797.25;5002846;28;20461;-78
2021/04/10 00:12:24;;;;;;;68.65;29.67;;;;;;;3.36;48.64;95802.22;5002292;28;20021;-78
2021/04/10 00:14:50;;;;;;;77.28;29.63;;;;;;;3.35;49.10;95796.28;5035542;28;20037;-78
2021/04/10 00:17:15;;;;;;;68.22;27.25;;;;;;;3.32;48.96;95796.63;4986569;28;20033;-78
2021/04/10 00:19:41;;;;;;;74.05;30.95;;;;;;;3.33;49.60;95798.22;5035863;28;20549;-78
2021/04/10 00:22:06;;;;;;;92.18;37.00;;;;;;;3.30;49.88;95793.41;5002087;28;20513;-78
2021/04/10 00:24:31;;;;;;;100.30;40.10;;;;;;;3.31;50.31;95784.72;5034686;28;20033;-78
2021/04/10 00:26:57;;;;;;;99.93;40.00;;;;;;;3.24;50.10;95788.88;5036447;28;20088;-78
2021/04/10 00:29:22;;;;;;;99.55;37.65;;;;;;;3.26;50.21;95789.56;5018863;28;20025;-78
2021/04/10 00:31:48;;;;;;;91.13;33.83;;;;;;;3.28;50.77;95790.19;4985753;28;20021;-78
2021/04/10 00:34:13;;;;;;;93.80;35.42;;;;;;;3.32;50.28;95796.63;5002007;28;20029;-78
2021/04/10 00:36:39;;;;;;;96.30;37.20;;;;;;;3.25;50.30;95793.06;4986571;28;20082;-78
2021/04/10 00:39:04;;;;;;;89.65;36.25;;;;;;;3.27;50.42;95789.41;5036378;28;20025;-78
2021/04/10 00:41:30;;;;;;;98.57;40.90;;;;;;;3.25;50.78;95788.75;5018294;28;20032;-78
2021/04/10 00:43:55;;;;;;;133.32;44.63;;;;;;;3.21;50.85;95786.66;5035836;28;20038;-78
2021/04/10 00:46:21;;;;;;;122.35;48.28;;;;;;;3.18;50.94;95787.78;5001924;28;20565;-78
2021/04/10 00:48:46;;;;;;;107.25;39.17;;;;;;;3.08;50.81;95783.75;5036262;28;20056;-78
2021/04/10 00:51:12;;;;;;;66.80;29.08;;;;;;;3.03;50.95;95783.44;4985758;28;20025;-78
2021/04/10 00:53:37;;;;;;;52.97;24.27;;;;;;;3.03;51.11;95784.25;5002339;28;20037;-78
2021/04/10 00:56:04;;;;;;;42.33;17.77;;;;;;;3.00;50.91;95782.00;4984831;28;20025;-78
2021/04/10 00:58:31;;;;;;;46.88;17.90;;;;;;;2.94;51.60;95772.38;4985035;28;20417;-78
2021/04/10 01:00:56;;;;;;;39.80;15.93;;;;;;;2.88;52.16;95768.69;5001658;28;20152;-78
2021/04/10 01:03:22;;;;;;;35.42;16.27;;;;;;;3.00;50.13;95771.75;5018458;28;20514;-79
2021/04/10 01:05:47;;;;;;;37.75;19.55;;;;;;;2.90;50.81;95771.88;4985503;28;20029;-78
2021/04/10 01:08:13;;;;;;;95.93;48.55;;;;;;;2.87;51.04;95774.78;5018454;28;20064;-78
2021/04/10 01:10:38;;;;;;;112.40;63.65;;;;;;;2.79;52.23;95774.78;4988181;28;20038;-78
2021/04/10 01:13:25;;;;;;;156.95;87.05;;;;;;;2.83;51.98;95770.94;5013896;28;20065;-78
2021/04/10 01:15:56;;;;;;;125.55;68.43;;;;;;;2.79;51.95;95779.13;5034196;28;20041;-78
2021/04/10 01:19:00;;;;;;;54.33;28.92;;;;;;;2.81;51.12;95777.19;5034805;28;20124;-78
2021/04/10 01:21:40;;;;;;;49.38;21.02;;;;;;;2.78;51.63;95778.31;5018357;28;20056;-78
2021/04/10 01:24:41;;;;;;;28.63;11.55;;;;;;;2.99;49.99;95783.78;5016672;28;20041;-78
2021/04/10 01:27:06;;;;;;;59.15;27.27;;;;;;;2.98;50.30;95784.75;5016624;28;20033;-78
2021/04/10 01:29:37;;;;;;;37.90;20.45;;;;;;;2.95;50.62;95786.84;5037147;23;20094;-78
2021/04/10 01:32:02;;;;;;;46.25;18.75;;;;;;;2.88;51.78;95791.78;4998098;28;20121;-78
2021/04/10 01:34:34;;;;;;;34.70;17.02;;;;;;;2.82;52.28;95774.47;5014887;28;20073;-78
2021/04/10 01:37:20;;;;;;;25.27;15.50;;;;;;;2.77;52.41;95784.44;4978842;28;20458;-78
2021/04/10 01:39:47;;;;;;;26.45;13.35;;;;;;;2.77;52.22;95783.63;5014941;28;20037;-78
2021/04/10 01:42:12;;;;;;;34.08;13.77;;;;;;;2.83;51.46;95781.22;5033233;23;20045;-78
2021/04/10 01:44:38;;;;;;;22.30;11.93;;;;;;;2.87;51.53;95787.63;5017301;28;20494;-79
2021/04/10 01:47:04;;;;;;;27.48;15.35;;;;;;;2.84;51.74;95777.69;5001369;28;20041;-78
2021/04/10 01:49:30;;;;;;;30.55;14.85;;;;;;;2.80;52.01;95781.53;4984664;28;20025;-78
2021/04/10 01:51:55;;;;;;;33.70;16.85;;;;;;;2.84;52.17;95774.31;5000989;28;20036;-78
2021/04/10 01:54:20;;;;;;;48.42;20.70;;;;;;;2.75;53.11;95773.47;4999999;28;20029;-78
2021/04/10 01:56:46;;;;;;;52.83;22.60;;;;;;;2.77;52.38;95769.00;5000107;28;20088;-78
2021/04/10 01:59:15;;;;;;;97.70;45.53;;;;;;;2.66;52.85;95771.88;5016720;28;20108;-77
2021/04/10 02:01:41;;;;;;;92.05;47.08;;;;;;;2.64;53.50;95766.13;5012690;28;20172;-77
2021/04/10 02:04:08;;;;;;;133.23;68.63;;;;;;;2.64;52.26;95771.25;5014485;28;20065;-79
2021/04/10 02:06:34;;;;;;;120.75;63.33;;;;;;;2.57;52.36;95765.94;5001263;28;20037;-79
2021/04/10 02:08:59;;;;;;;109.80;56.13;;;;;;;2.57;52.31;95772.81;5017090;28;20049;-78
2021/04/10 02:11:25;;;;;;;108.50;50.75;;;;;;;2.62;52.39;95765.47;4984251;28;20031;-78
2021/04/10 02:13:50;;;;;;;78.07;40.10;;;;;;;2.60;52.13;95764.81;5019594;28;20071;-78
2021/04/10 02:16:16;;;;;;;89.78;44.35;;;;;;;2.56;52.18;95768.66;5002250;23;20293;-78
2021/04/10 02:18:48;;;;;;;87.07;46.08;;;;;;;2.58;52.00;95769.28;4999954;28;20033;-78
2021/04/10 02:21:24;;;;;;;91.03;47.47;;;;;;;2.60;52.20;95767.38;5000898;28;20041;-78
2021/04/10 02:23:50;;;;;;;89.38;45.17;;;;;;;2.55;52.90;95773.00;5019338;28;20038;-78
2021/04/10 02:26:15;;;;;;;119.10;64.07;;;;;;;2.60;52.86;95777.63;5015277;28;20060;-78
2021/04/10 02:28:40;;;;;;;127.88;65.75;;;;;;;2.51;53.32;95774.28;5016799;28;20029;-78
2021/04/10 02:31:06;;;;;;;139.90;68.72;;;;;;;2.51;52.73;95770.91;5017127;28;20030;-78
2021/04/10 02:33:50;;;;;;;222.80;125.85;;;;;;;2.48;52.70;95772.03;4983472;28;20064;-78
2021/04/10 02:36:21;;;;;;;189.45;102.40;;;;;;;2.39;52.78;95765.25;4983495;28;20038;-78
2021/04/10 02:38:48;;;;;;;145.00;74.40;;;;;;;2.36;53.17;95771.50;4969258;28;20487;-78
2021/04/10 02:41:16;;;;;;;105.13;51.15;;;;;;;2.40;52.50;95765.09;4985086;28;20034;-78
2021/04/10 02:43:52;;;;;;;68.35;33.53;;;;;;;2.40;52.46;95770.22;5004503;28;20037;-78
2021/04/10 02:46:17;;;;;;;61.20;30.10;;;;;;;2.31;52.99;95766.06;4999491;28;20112;-78
2021/04/10 02:49:09;;;;;;;52.55;24.90;;;;;;;2.26;52.89;95768.28;4969204;28;20482;-78
2021/04/10 02:51:58;;;;;;;63.97;24.67;;;;;;;2.20;53.15;95762.97;4985477;28;20034;-78
2021/04/10 02:54:29;;;;;;;44.05;21.20;;;;;;;2.16;52.84;95765.06;5003024;28;20030;-78
2021/04/10 02:57:01;;;;;;;46.20;20.15;;;;;;;2.10;53.74;95763.91;4983139;28;20037;-79
2021/04/10 02:59:27;;;;;;;49.03;18.10;;;;;;;2.13;54.24;95772.28;5001744;28;20157;-78
2021/04/10 03:01:52;;;;;;;35.22;16.05;;;;;;;2.12;53.92;95771.47;4986184;28;20542;-78
2021/04/10 03:04:18;;;;;;;46.50;17.13;;;;;;;2.07;54.30;95763.41;5018660;28;20030;-78
2021/04/10 03:06:43;;;;;;;48.13;17.17;;;;;;;2.03;54.07;95759.56;4984068;28;20034;-78
2021/04/10 03:09:09;;;;;;;48.40;20.52;;;;;;;2.04;54.71;95768.88;4984529;28;20042;-78
2021/04/10 03:11:34;;;;;;;47.95;21.63;;;;;;;2.06;53.74;95769.50;4984191;28;20092;-77
2021/04/10 03:14:00;;;;;;;75.75;36.80;;;;;;;2.07;54.37;95769.34;4991067;23;20539;-78
2021/04/10 03:16:29;;;;;;;108.90;49.03;;;;;;;2.10;54.45;95779.28;4985106;28;20075;-78
2021/04/10 03:18:54;;;;;;;150.63;72.18;;;;;;;2.06;54.66;95782.34;4981835;28;20025;-78
2021/04/10 03:21:19;;;;;;;153.13;70.28;;;;;;;2.02;55.29;95781.03;4981157;28;20096;-78
2021/04/10 03:23:45;;;;;;;160.30;72.20;;;;;;;1.96;55.44;95786.81;4997943;28;20026;-78
2021/04/10 03:28:41;;;;;;;152.35;77.53;;;;;;;2.03;53.87;95786.00;5043374;23;20046;-78
2021/04/10 03:31:06;;;;;;;148.93;75.95;;;;;;;2.00;54.10;95788.09;5000742;28;20065;-78
2021/04/10 03:33:32;;;;;;;117.78;58.03;;;;;;;1.97;54.33;95793.53;5016067;23;20053;-78
2021/04/10 03:35:57;;;;;;;117.57;58.15;;;;;;;1.97;54.74;95790.97;5014621;28;20080;-78
2021/04/10 03:38:23;;;;;;;112.38;55.45;;;;;;;1.91;54.84;95794.13;4994898;28;20166;-78
2021/04/10 03:40:48;;;;;;;120.05;59.30;;;;;;;1.97;54.08;95788.41;4997617;28;20034;-78
2021/04/10 03:43:14;;;;;;;113.63;54.30;;;;;;;1.98;53.78;95795.94;5024346;28;20037;-78
2021/04/10 03:45:39;;;;;;;113.88;59.35;;;;;;;2.02;53.47;95793.88;4994363;28;20029;-78
2021/04/10 03:48:05;;;;;;;128.90;67.63;;;;;;;1.99;53.97;95794.19;5014575;23;20045;-78
2021/04/10 03:50:31;;;;;;;121.68;63.83;;;;;;;1.97;54.80;95794.34;5015342;28;20152;-78
2021/04/10 03:52:56;;;;;;;117.65;56.40;;;;;;;1.99;54.60;95797.56;5020738;23;20333;-78
2021/04/10 03:55:22;;;;;;;109.63;56.63;;;;;;;2.01;54.56;95802.53;5035316;28;20494;-78
2021/04/10 03:57:47;;;;;;;134.02;68.25;;;;;;;2.02;54.11;95797.25;5017754;28;20044;-78
2021/04/10 04:00:13;;;;;;;132.40;61.08;;;;;;;1.98;54.58;95795.94;5035328;28;20069;-78
2021/04/10 04:02:39;;;;;;;134.40;56.95;;;;;;;2.12;53.55;95801.44;5001809;28;20057;-79
2021/04/10 04:05:05;;;;;;;187.57;73.88;;;;;;;2.07;53.72;95796.75;4972649;23;20038;-78
2021/04/10 04:07:31;;;;;;;158.77;68.03;;;;;;;2.19;52.74;95798.09;5015471;28;20383;-78
2021/04/10 04:09:56;;;;;;;164.48;69.60;;;;;;;2.31;52.24;95798.63;4998391;28;20088;-78
2021/04/10 04:12:22;;;;;;;130.52;54.40;;;;;;;2.59;51.70;95801.72;4980871;28;20169;-77
2021/04/10 04:14:47;;;;;;;109.32;50.95;;;;;;;2.79;51.53;95805.63;5019827;28;20038;-78
2021/04/10 04:17:12;;;;;;;146.27;61.47;;;;;;;3.16;50.92;95796.63;5018562;28;20022;-79
2021/04/10 04:19:38;;;;;;;170.20;82.07;;;;;;;3.29;50.75;95802.88;4981875;28;20022;-78
2021/04/10 04:22:04;;;;;;;159.90;82.78;;;;;;;3.41;50.34;95805.09;4984994;23;20188;-77
2021/04/10 04:24:29;;;;;;;138.50;67.53;;;;;;;3.50;49.52;95799.00;5031631;28;20045;-77
2021/04/10 04:26:55;;;;;;;147.45;66.97;;;;;;;3.92;49.21;95801.31;5007473;23;20125;-77
2021/04/10 04:29:21;;;;;;;159.07;76.57;;;;;;;4.68;47.33;95799.81;5052155;23;20509;-77
2021/04/10 04:31:46;;;;;;;181.73;92.60;;;;;;;6.09;45.26;95795.66;5031484;28;20068;-77
2021/04/10 04:34:12;;;;;;;193.00;97.88;;;;;;;7.40;40.56;95789.44;4995382;28;20051;-77
2021/04/10 04:36:37;;;;;;;201.93;101.90;;;;;;;8.63;38.51;95786.91;4962641;28;20041;-77
2021/04/10 04:39:03;;;;;;;182.80;87.40;;;;;;;9.88;36.38;95786.16;4979261;28;20033;-78
2021/04/10 04:41:29;;;;;;;175.30;86.40;;;;;;;11.22;34.32;95787.16;4968337;28;20540;-79
2021/04/10 04:43:54;;;;;;;182.30;92.47;;;;;;;12.30;31.44;95790.19;4986845;23;20451;-78
2021/04/10 04:46:20;;;;;;;199.40;89.03;;;;;;;13.58;29.69;95784.63;4991695;28;20039;-79
2021/04/10 04:48:45;;;;;;;174.23;92.75;;;;;;;14.85;27.44;95783.88;4994975;28;20026;-78
2021/04/10 04:51:16;;;;;;;162.30;86.15;;;;;;;16.04;26.06;95779.25;4995819;28;20495;-78
2021/04/10 04:53:42;;;;;;;132.60;69.85;;;;;;;16.88;24.50;95784.19;4963194;28;20069;-78
2021/04/10 04:56:07;;;;;;;151.27;72.40;;;;;;;17.83;23.38;95779.25;4996768;28;20027;-78
2021/04/10 04:58:33;;;;;;;119.15;54.42;;;;;;;18.85;22.25;95770.00;4999182;28;20046;-78
2021/04/10 05:00:58;;;;;;;86.88;44.17;;;;;;;19.69;20.78;95774.84;5000141;28;20035;-78
2021/04/10 05:03:24;;;;;;;184.90;82.28;;;;;;;20.57;20.35;95774.38;5001485;28;20030;-78
2021/04/10 05:05:49;;;;;;;139.43;69.70;;;;;;;21.42;19.13;95776.81;5002350;28;20073;-78
2021/04/10 05:08:15;;;;;;;139.05;73.28;;;;;;;22.16;18.45;95788.91;5002457;28;20039;-78
2021/04/10 05:10:40;;;;;;;120.32;63.58;;;;;;;22.81;18.15;95777.03;5003927;23;20042;-78
2021/04/10 05:13:06;;;;;;;129.80;69.72;;;;;;;23.58;17.01;95785.50;5021252;28;20076;-78
2021/04/10 05:15:31;;;;;;;136.82;66.35;;;;;;;24.48;16.42;95786.84;5003048;28;20103;-78
2021/04/10 05:17:57;;;;;;;126.57;66.47;;;;;;;25.08;15.53;95782.19;5022164;28;20034;-78
2021/04/10 05:20:22;;;;;;;118.03;61.45;;;;;;;25.79;15.13;95781.63;5022427;28;20034;-78
2021/04/10 05:22:57;;;;;;;111.22;51.10;;;;;;;26.57;14.35;95796.13;5004384;28;20034;-79
2021/04/10 05:25:22;;;;;;;95.18;46.17;;;;;;;27.07;14.35;95795.78;4979806;28;20513;-79
2021/04/10 05:27:49;;;;;;;64.22;31.83;;;;;;;27.58;13.68;95791.56;4962984;28;20029;-78
2021/04/10 05:30:15;;;;;;;63.30;30.52;;;;;;;28.25;13.01;95790.97;4978928;28;20092;-78
2021/04/10 05:32:43;;;;;;;49.00;22.02;;;;;;;28.75;12.24;95787.59;4978053;28;20061;-77
2021/04/10 05:35:09;;;;;;;43.45;19.58;;;;;;;28.88;11.70;95791.97;5013968;28;20029;-77
2021/04/10 05:37:35;;;;;;;45.75;21.90;;;;;;;29.48;11.43;95785.44;4998734;28;20716;-77
2021/04/10 05:40:02;;;;;;;45.05;20.52;;;;;;;29.61;11.45;95789.69;5015117;28;20123;-78
2021/04/10 05:42:28;;;;;;;42.80;18.60;;;;;;;29.28;11.56;95790.41;4980978;28;20049;-78
2021/04/10 05:44:53;;;;;;;43.72;17.42;;;;;;;28.72;11.94;95796.28;4980119;28;20131;-78
2021/04/10 05:47:19;;;;;;;31.20;16.45;;;;;;;28.15;12.24;95794.78;4982527;28;20449;-77
2021/04/10 05:49:44;;;;;;;27.33;14.45;;;;;;;27.18;12.15;95791.72;5018657;28;20410;-77
2021/04/10 05:52:10;;;;;;;33.63;15.55;;;;;;;26.03;13.01;95798.06;4998779;28;20034;-79
2021/04/10 05:54:35;;;;;;;28.55;15.52;;;;;;;24.84;13.87;95794.91;4998568;28;20041;-77
2021/04/10 05:57:01;;;;;;;26.17;14.57;;;;;;;24.02;14.33;95795.66;4998108;28;20042;-77
2021/04/10 05:59:26;;;;;;;33.08;15.75;;;;;;;23.50;15.34;95788.78;4981794;28;20034;-77
2021/04/10 06:01:52;;;;;;;29.83;14.82;;;;;;;23.28;15.71;95784.88;4996704;28;20030;-78
2021/04/10 06:04:17;;;;;;;30.58;14.75;;;;;;;23.08;15.27;95784.34;5014253;28;20088;-77
2021/04/10 06:06:43;;;;;;;34.45;14.43;;;;;;;22.66;15.52;95786.75;5056359;23;20099;-78
2021/04/10 06:09:08;;;;;;;30.40;14.05;;;;;;;22.10;16.23;95787.34;5033244;28;20033;-77
2021/04/10 06:11:33;;;;;;;36.95;15.35;;;;;;;21.47;16.78;95786.56;5033191;28;20528;-78
2021/04/10 06:14:02;;;;;;;26.92;14.68;;;;;;;20.84;17.34;95784.56;5014668;28;20041;-78
2021/04/10 06:16:28;;;;;;;38.67;15.95;;;;;;;20.04;18.60;95786.41;5032865;28;20079;-79
2021/04/10 06:18:53;;;;;;;36.83;16.30;;;;;;;19.45;18.49;95790.38;5021484;28;20041;-79
2021/04/10 06:21:19;;;;;;;41.22;16.90;;;;;;;19.21;19.45;95784.06;5021983;28;20414;-79
2021/04/10 06:23:46;;;;;;;41.13;16.35;;;;;;;19.02;19.91;95786.38;5013102;23;20038;-79
2021/04/10 06:26:12;;;;;;;46.10;16.25;;;;;;;18.86;19.26;95790.00;5002330;28;20039;-79
2021/04/10 06:28:37;;;;;;;40.17;17.05;;;;;;;18.58;20.63;95791.22;4983136;28;20081;-79
2021/04/10 06:31:03;;;;;;;41.97;17.50;;;;;;;18.38;20.43;95802.44;5002580;28;20033;-79
2021/04/10 06:33:29;;;;;;;41.65;17.65;;;;;;;18.38;20.48;95799.03;5001702;28;20030;-78
2021/04/10 06:35:54;;;;;;;29.45;15.88;;;;;;;18.34;20.32;95806.66;4948958;28;20045;-78
2021/04/10 06:38:19;;;;;;;34.53;15.60;;;;;;;17.98;20.36;95801.19;5000774;28;20057;-79
2021/04/10 06:40:45;;;;;;;39.80;17.40;;;;;;;17.86;20.49;95803.22;4999009;28;20065;-79
2021/04/10 06:43:10;;;;;;;39.83;16.48;;;;;;;17.85;20.77;95812.16;4995277;28;20045;-79
2021/04/10 06:45:36;;;;;;;32.55;16.95;;;;;;;17.77;20.81;95804.75;4999497;28;20034;-79
2021/04/10 06:48:02;;;;;;;31.75;16.20;;;;;;;17.78;20.93;95801.06;4998811;28;20034;-79
2021/04/10 06:50:28;;;;;;;40.60;16.45;;;;;;;17.58;20.88;95793.00;4965161;28;20057;-78
2021/04/10 06:52:53;;;;;;;38.58;15.95;;;;;;;17.14;20.98;95790.50;4996990;28;20057;-78
2021/04/10 06:55:22;;;;;;;33.33;14.68;;;;;;;17.11;21.68;95793.66;4963417;28;20064;-79
2021/04/10 06:57:57;;;;;;;37.97;17.08;;;;;;;16.98;21.94;95794.81;4965516;28;20047;-78
2021/04/10 07:00:22;;;;;;;33.03;16.35;;;;;;;17.00;22.05;95791.94;4998852;28;20522;-79
2021/04/10 07:02:48;;;;;;;30.52;15.73;;;;;;;17.06;21.67;95785.69;4966253;28;20042;-79
2021/04/10 07:05:14;;;;;;;38.63;16.17;;;;;;;17.17;21.43;95786.59;4987647;28;20034;-78
2021/04/10 07:07:43;;;;;;;30.85;15.55;;;;;;;17.08;21.17;95780.97;5011059;23;20875;-78
2021/04/10 07:10:10;;;;;;;39.28;14.95;;;;;;;16.95;21.29;95789.28;5016546;28;20041;-78
2021/04/10 07:12:37;;;;;;;31.50;15.82;;;;;;;16.88;21.72;95786.81;4984296;28;20037;-78
2021/04/10 07:15:07;;;;;;;35.78;15.35;;;;;;;16.67;21.78;95777.94;4968175;28;20413;-78
2021/04/10 07:17:33;;;;;;;34.97;15.75;;;;;;;16.68;22.21;95784.00;4983771;28;20034;-80
2021/04/10 07:19:58;;;;;;;33.72;14.70;;;;;;;16.78;22.04;95784.13;4990609;28;20045;-78
2021/04/10 07:22:24;;;;;;;35.65;16.55;;;;;;;16.73;21.91;95790.09;4986959;28;20029;-79
2021/04/10 07:24:50;;;;;;;31.00;15.38;;;;;;;16.57;21.73;95790.91;5019422;28;20030;-77
2021/04/10 07:27:22;;;;;;;34.15;15.30;;;;;;;16.37;21.68;95790.69;4987329;28;20494;-79
2021/04/10 07:29:52;;;;;;;26.40;15.25;;;;;;;16.18;21.67;95795.44;5007590;28;20494;-79
2021/04/10 07:32:34;;;;;;;34.17;14.52;;;;;;;16.27;21.81;95787.91;4991695;28;20026;-79
2021/04/10 07:35:10;;;;;;;28.25;14.00;;;;;;;16.35;21.11;95788.31;5005767;28;20124;-79
2021/04/10 07:37:51;;;;;;;26.52;12.57;;;;;;;16.52;20.95;95789.03;5007239;28;20041;-79
2021/04/10 07:40:23;;;;;;;25.77;11.88;;;;;;;16.58;21.30;95794.34;4990914;28;20037;-79
2021/04/10 07:42:48;;;;;;;42.07;12.90;;;;;;;16.56;20.93;95784.09;5038285;23;20030;-79
2021/04/10 07:45:34;;;;;;;33.00;16.67;;;;;;;16.53;21.13;95781.94;5043186;28;20089;-79
2021/04/10 07:48:03;;;;;;;26.92;11.35;;;;;;;16.56;20.66;95781.47;5034433;28;20097;-78
2021/04/10 07:50:29;;;;;;;32.13;13.20;;;;;;;16.50;20.92;95785.06;5015362;28;20100;-78
2021/04/10 07:52:55;;;;;;;28.75;12.98;;;;;;;16.46;21.07;95782.16;5045736;28;20045;-79
2021/04/10 07:55:42;;;;;;;23.08;11.45;;;;;;;16.13;20.79;95780.44;5022826;28;20064;-78
2021/04/10 07:58:24;;;;;;;27.10;10.85;;;;;;;16.25;20.75;95771.63;5022897;28;20061;-79
2021/04/10 08:01:09;;;;;;;16.30;9.75;;;;;;;16.41;20.58;95773.41;5008897;28;20036;-79
2021/04/10 08:03:39;;;;;;;29.77;12.32;;;;;;;16.41;21.17;95770.78;5024918;28;20033;-79
2021/04/10 08:06:04;;;;;;;25.45;11.70;;;;;;;16.37;20.96;95773.09;5023954;23;20015;-79
2021/04/10 08:08:52;;;;;;;23.50;11.82;;;;;;;16.47;21.13;95775.84;5018121;28;20089;-79
2021/04/10 08:11:34;;;;;;;24.15;12.43;;;;;;;16.37;21.14;95770.47;5020820;28;20037;-80
2021/04/10 08:14:03;;;;;;;26.67;12.27;;;;;;;16.26;20.82;95770.59;5023900;28;20030;-79
2021/04/10 08:16:28;;;;;;;21.90;11.77;;;;;;;16.02;21.23;95765.56;4990621;28;20038;-79
2021/04/10 08:18:58;;;;;;;32.20;11.45;;;;;;;15.88;21.43;95765.13;4989573;28;20042;-79
2021/04/10 08:21:30;;;;;;;25.42;12.23;;;;;;;15.71;22.19;95758.31;5016420;28;20036;-79
2021/04/10 08:23:56;;;;;;;31.38;11.85;;;;;;;15.70;22.08;95756.72;5015434;28;20042;-79
2021/04/10 08:26:22;;;;;;;32.42;12.27;;;;;;;15.54;21.77;95759.09;4994912;28;20055;-77
2021/04/10 08:28:47;;;;;;;19.63;11.80;;;;;;;15.48;22.43;95757.44;4978428;28;20028;-78
2021/04/10 08:31:13;;;;;;;32.22;11.75;;;;;;;15.60;22.13;95752.91;4996348;28;20037;-77
2021/04/10 08:33:38;;;;;;;25.80;11.98;;;;;;;15.48;22.34;95749.56;5007432;23;20069;-79
2021/04/10 08:36:06;;;;;;;18.48;11.27;;;;;;;15.43;22.06;95751.31;5036090;28;20421;-80
2021/04/10 08:38:39;;;;;;;27.88;11.85;;;;;;;15.43;22.26;95741.63;5005214;28;20050;-79
2021/04/10 08:41:06;;;;;;;29.38;11.18;;;;;;;15.47;22.48;95741.94;4999535;28;20117;-79
2021/04/10 08:43:39;;;;;;;19.70;12.18;;;;;;;15.27;22.98;95745.03;4999713;28;20040;-78
2021/04/10 08:46:05;;;;;;;31.50;13.32;;;;;;;15.34;22.29;95740.44;5021059;23;20141;-78
2021/04/10 08:48:31;;;;;;;25.40;11.65;;;;;;;15.39;22.70;95737.09;5034071;23;20037;-78
2021/04/10 08:50:58;;;;;;;22.65;11.95;;;;;;;15.43;22.10;95732.97;5018805;28;20156;-78
2021/04/10 08:53:28;;;;;;;20.58;11.75;;;;;;;15.44;22.71;95727.47;5020280;28;20033;-78
2021/04/10 08:55:54;;;;;;;19.88;11.25;;;;;;;15.48;21.84;95727.81;5040848;28;20057;-78
2021/04/10 08:58:24;;;;;;;19.95;11.30;;;;;;;15.46;21.78;95725.44;4990394;28;20061;-79
2021/04/10 09:01:00;;;;;;;24.38;11.43;;;;;;;15.46;22.12;95720.19;5021960;28;20238;-78
2021/04/10 09:03:50;;;;;;;20.17;10.88;;;;;;;15.45;21.88;95717.78;5004503;28;20118;-78
2021/04/10 09:08:42;;;;;;;21.48;11.32;;;;;;;15.37;22.98;95726.84;5047960;23;20045;-79
2021/04/10 09:11:18;;;;;;;42.17;11.07;;;;;;;15.21;22.53;95706.69;5037599;28;20025;-79
2021/04/10 09:13:44;;;;;;;19.50;10.60;;;;;;;15.23;22.31;95709.88;5005076;23;20053;-78
2021/04/10 09:16:27;;;;;;;29.33;10.85;;;;;;;14.90;22.64;95708.81;4998308;28;20038;-79
2021/04/10 09:19:03;;;;;;;19.38;10.40;;;;;;;14.83;22.75;95712.63;4965040;28;20129;-79
2021/04/10 09:21:42;;;;;;;21.33;9.27;;;;;;;14.75;22.82;95702.53;4980385;28;20034;-79
2021/04/10 09:24:40;;;;;;;14.85;9.05;;;;;;;14.79;22.69;95698.38;4989916;23;20034;-78
2021/04/10 09:27:19;;;;;;;19.80;9.18;;;;;;;14.92;23.03;95683.19;5009247;28;20045;-78
2021/04/10 09:30:01;;;;;;;15.48;9.05;;;;;;;14.94;22.20;95696.03;4981443;28;20080;-78
2021/04/10 09:32:39;;;;;;;18.10;9.20;;;;;;;14.79;22.50;95688.72;5016939;28;20053;-78
2021/04/10 09:35:11;;;;;;;16.27;10.13;;;;;;;14.46;22.89;95684.22;5017790;28;20038;-78
2021/04/10 09:37:36;;;;;;;21.65;9.05;;;;;;;14.40;23.18;95683.31;5018606;28;20037;-78
2021/04/10 09:40:20;;;;;;;19.67;8.50;;;;;;;14.31;22.63;95676.03;5002561;28;20100;-78
2021/04/10 09:42:47;;;;;;;15.60;9.10;;;;;;;14.41;22.72;95671.81;5010093;28;20036;-78
2021/04/10 09:45:16;;;;;;;25.23;9.60;;;;;;;14.47;22.25;95669.31;4967430;28;20173;-78
2021/04/10 09:48:00;;;;;;;27.67;8.00;;;;;;;14.61;22.33;95666.16;5040400;23;20049;-78
2021/04/10 09:50:26;;;;;;;21.40;9.07;;;;;;;14.74;22.74;95659.84;5038726;28;20044;-78
2021/04/10 09:53:02;;;;;;;17.42;8.13;;;;;;;14.77;23.93;95654.13;5040723;28;20030;-79
2021/04/10 09:55:29;;;;;;;13.57;8.52;;;;;;;14.74;22.21;95648.56;5030529;28;20036;-79
2021/04/10 09:58:00;;;;;;;19.10;8.48;;;;;;;14.70;23.02;95643.03;5029939;28;20029;-78
2021/04/10 10:00:29;;;;;;;19.35;8.25;;;;;;;14.66;22.95;95636.69;5023862;28;20037;-78
2021/04/10 10:02:59;;;;;;;17.58;7.90;;;;;;;14.66;22.07;95634.06;5056360;28;20045;-79
2021/04/10 10:05:29;;;;;;;22.25;8.55;;;;;;;14.78;22.73;95637.38;5056872;28;20074;-78
2021/04/10 10:07:55;;;;;;;13.77;7.32;;;;;;;14.69;21.86;95641.44;5055286;28;20026;-78
2021/04/10 10:10:22;;;;;;;14.65;7.93;;;;;;;14.69;21.42;95631.75;5041592;23;20041;-79
2021/04/10 10:12:47;;;;;;;22.95;7.88;;;;;;;14.77;21.84;95633.19;5004472;28;20059;-79
2021/04/10 10:15:20;;;;;;;21.40;8.27;;;;;;;14.75;21.96;95630.00;4985327;28;20053;-79
2021/04/10 10:17:45;;;;;;;25.20;7.60;;;;;;;14.81;22.09;95625.66;5013517;23;20125;-79
2021/04/10 10:20:11;;;;;;;14.57;8.07;;;;;;;14.90;21.98;95624.22;5039914;28;20030;-79
2021/04/10 10:22:37;;;;;;;15.50;7.68;;;;;;;14.93;22.13;95614.06;5034284;23;21152;-80
2021/04/10 10:25:03;;;;;;;15.00;7.50;;;;;;;14.97;21.77;95623.03;4998780;28;20026;-79
2021/04/10 10:27:33;;;;;;;17.25;7.65;;;;;;;15.05;21.88;95610.56;5000750;28;20479;-78
2021/04/10 10:29:59;;;;;;;18.50;7.20;;;;;;;14.98;21.66;95603.69;5001198;28;20115;-79
2021/04/10 10:32:24;;;;;;;18.55;7.10;;;;;;;14.87;21.51;95601.94;5002593;28;20033;-79
2021/04/10 10:34:49;;;;;;;16.20;7.90;;;;;;;14.87;21.88;95601.94;5025847;28;20474;-79
2021/04/10 10:37:15;;;;;;;11.45;7.07;;;;;;;14.88;21.67;95595.66;5004472;28;20030;-79
2021/04/10 10:39:40;;;;;;;13.40;7.25;;;;;;;14.98;21.44;95587.97;5020642;28;20026;-79
2021/04/10 10:42:06;;;;;;;11.00;7.53;;;;;;;15.09;22.10;95594.13;4990363;28;20034;-79
2021/04/10 10:44:34;;;;;;;13.63;7.28;;;;;;;15.20;22.13;95592.44;4992477;28;20101;-77
2021/04/10 10:47:02;;;;;;;16.90;7.68;;;;;;;15.26;21.28;95583.59;5015187;28;20026;-78
2021/04/10 10:49:28;;;;;;;14.73;7.28;;;;;;;15.27;21.11;95580.75;5015549;28;20486;-77
2021/04/10 10:51:54;;;;;;;15.55;7.05;;;;;;;15.27;21.29;95575.50;4966012;28;20045;-78
2021/04/10 10:54:32;;;;;;;14.25;7.28;;;;;;;15.31;22.08;95578.47;4967309;28;20030;-78
2021/04/10 10:56:57;;;;;;;17.73;8.07;;;;;;;15.23;21.33;95574.41;4998478;28;20040;-79
2021/04/10 10:59:26;;;;;;;21.25;8.00;;;;;;;15.25;21.82;95569.72;4981638;28;20022;-78
2021/04/10 11:01:51;;;;;;;20.45;7.28;;;;;;;15.33;21.49;95568.53;4985463;28;20084;-78
2021/04/10 11:04:18;;;;;;;19.83;7.43;;;;;;;15.35;21.89;95566.44;5004016;28;20038;-78
2021/04/10 11:06:46;;;;;;;16.38;7.43;;;;;;;15.32;21.39;95562.50;4996172;28;20073;-77
2021/04/10 11:09:18;;;;;;;12.43;8.00;;;;;;;15.38;21.68;95557.31;5036567;28;20061;-80
2021/04/10 11:11:45;;;;;;;12.80;7.63;;;;;;;15.44;21.03;95553.69;4974455;28;20490;-79
2021/04/10 11:14:10;;;;;;;20.90;8.63;;;;;;;15.46;21.76;95546.41;5050457;23;20088;-79
2021/04/10 11:16:42;;;;;;;14.30;6.82;;;;;;;15.51;21.36;95549.09;5030971;28;20038;-79
2021/04/10 11:19:08;;;;;;;19.45;6.97;;;;;;;15.57;21.12;95548.88;5030636;28;20026;-79
2021/04/10 11:21:33;;;;;;;17.63;7.18;;;;;;;15.59;21.25;95551.28;5047011;28;20060;-78
2021/04/10 11:24:11;;;;;;;15.30;6.90;;;;;;;15.51;20.51;95543.84;4996305;28;20034;-79
2021/04/10 11:26:37;;;;;;;19.60;6.82;;;;;;;15.17;20.36;95540.53;5011173;28;20513;-79
2021/04/10 11:29:14;;;;;;;16.35;6.85;;;;;;;14.96;20.82;95532.38;5036093;28;20112;-79